sensor_id;sensor_type;location;lat;lon;timestamp;pressure;altitude;pressure_sealevel;temperature;humidity
30682;BME280;17439;48.092;11.842;2023-10-08T00:01:27;96173.63;;;19.37;32.35
30682;BME280;17439;48.092;11.842;2023-10-08T00:03:53;96173.19;;;19.35;31.71
30682;BME280;17439;48.092;11.842;2023-10-08T00:06:21;96175.16;;;19.34;32.07
30682;BME280;17439;48.092;11.842;2023-10-08T00:08:48;96167.25;;;19.33;32.21
30682;BME280;17439;48.092;11.842;2023-10-08T00:11:16;96161.41;;;19.34;32.03
30682;BME280;17439;48.092;11.842;2023-10-08T00:13:43;96157.41;;;19.32;32.09
30682;BME280;17439;48.092;11.842;2023-10-08T00:16:13;96154.22;;;19.30;31.61
30682;BME280;17439;48.092;11.842;2023-10-08T00:18:40;96146.66;;;19.27;31.91
30682;BME280;17439;48.092;11.842;2023-10-08T00:21:06;96147.00;;;19.25;31.87
30682;BME280;17439;48.092;11.842;2023-10-08T00:23:33;96140.34;;;19.26;31.86
30682;BME280;17439;48.092;11.842;2023-10-08T00:26:01;96138.78;;;19.25;31.74
30682;BME280;17439;48.092;11.842;2023-10-08T00:28:27;96136.47;;;19.27;32.03
30682;BME280;17439;48.092;11.842;2023-10-08T00:30:54;96133.81;;;19.31;32.17
30682;BME280;17439;48.092;11.842;2023-10-08T00:33:21;96133.09;;;19.34;31.90
30682;BME280;17439;48.092;11.842;2023-10-08T00:35:50;96128.31;;;19.31;31.73
30682;BME280;17439;48.092;11.842;2023-10-08T00:38:17;96120.19;;;19.34;31.75
30682;BME280;17439;48.092;11.842;2023-10-08T00:40:44;96120.97;;;19.35;31.67
30682;BME280;17439;48.092;11.842;2023-10-08T00:43:31;96125.69;;;19.34;31.88
30682;BME280;17439;48.092;11.842;2023-10-08T00:45:58;96123.38;;;19.36;31.51
30682;BME280;17439;48.092;11.842;2023-10-08T00:48:25;96122.75;;;19.43;31.84
30682;BME280;17439;48.092;11.842;2023-10-08T00:50:53;96125.94;;;19.45;31.60
30682;BME280;17439;48.092;11.842;2023-10-08T00:53:19;96117.47;;;19.50;31.49
30682;BME280;17439;48.092;11.842;2023-10-08T00:55:48;96121.00;;;19.51;31.40
30682;BME280;17439;48.092;11.842;2023-10-08T00:58:15;96125.44;;;19.55;31.48
30682;BME280;17439;48.092;11.842;2023-10-08T01:00:42;96118.06;;;19.60;31.53
30682;BME280;17439;48.092;11.842;2023-10-08T01:03:09;96118.88;;;19.60;31.67
30682;BME280;17439;48.092;11.842;2023-10-08T01:05:36;96111.88;;;19.63;31.61
30682;BME280;17439;48.092;11.842;2023-10-08T01:08:03;96112.75;;;19.67;31.66
30682;BME280;17439;48.092;11.842;2023-10-08T01:10:29;96113.63;;;19.71;31.68
30682;BME280;17439;48.092;11.842;2023-10-08T01:12:57;96115.69;;;19.74;31.77
30682;BME280;17439;48.092;11.842;2023-10-08T01:15:24;96114.53;;;19.75;31.83
30682;BME280;17439;48.092;11.842;2023-10-08T01:17:50;96115.47;;;19.79;31.61
30682;BME280;17439;48.092;11.842;2023-10-08T01:20:18;96113.16;;;19.81;31.69
30682;BME280;17439;48.092;11.842;2023-10-08T01:22:47;96122.19;;;19.82;31.84
30682;BME280;17439;48.092;11.842;2023-10-08T01:25:13;96118.66;;;19.81;31.71
30682;BME280;17439;48.092;11.842;2023-10-08T01:27:40;96124.72;;;19.87;31.47
30682;BME280;17439;48.092;11.842;2023-10-08T01:30:07;96124.72;;;19.87;31.53
30682;BME280;17439;48.092;11.842;2023-10-08T01:32:34;96119.28;;;19.90;31.76
30682;BME280;17439;48.092;11.842;2023-10-08T01:35:00;96112.53;;;19.88;31.69
30682;BME280;17439;48.092;11.842;2023-10-08T01:37:27;96107.09;;;19.91;31.53
30682;BME280;17439;48.092;11.842;2023-10-08T01:39:54;96105.97;;;19.92;31.92
30682;BME280;17439;48.092;11.842;2023-10-08T01:42:20;96103.66;;;19.94;31.85
30682;BME280;17439;48.092;11.842;2023-10-08T01:44:48;96109.16;;;19.94;31.51
30682;BME280;17439;48.092;11.842;2023-10-08T01:47:17;96110.75;;;19.96;31.82
30682;BME280;17439;48.092;11.842;2023-10-08T01:49:44;96108.44;;;19.98;31.78
30682;BME280;17439;48.092;11.842;2023-10-08T01:52:11;96108.44;;;19.98;31.99
30682;BME280;17439;48.092;11.842;2023-10-08T01:54:38;96107.72;;;20.01;31.97
30682;BME280;17439;48.092;11.842;2023-10-08T01:57:04;96102.22;;;20.01;31.83
30682;BME280;17439;48.092;11.842;2023-10-08T01:59:31;96092.03;;;20.01;31.88
30682;BME280;17439;48.092;11.842;2023-10-08T02:01:58;96097.53;;;20.01;31.83
30682;BME280;17439;48.092;11.842;2023-10-08T02:04:25;96098.34;;;20.02;31.71
30682;BME280;17439;48.092;11.842;2023-10-08T02:06:52;96092.41;;;20.00;31.57
30682;BME280;17439;48.092;11.842;2023-10-08T02:09:19;96087.31;;;20.02;31.82
30682;BME280;17439;48.092;11.842;2023-10-08T02:11:48;96093.25;;;20.04;31.63
30682;BME280;17439;48.092;11.842;2023-10-08T02:14:15;96094.44;;;20.03;31.66
30682;BME280;17439;48.092;11.842;2023-10-08T02:16:43;96091.69;;;20.03;31.45
30682;BME280;17439;48.092;11.842;2023-10-08T02:19:10;96085.00;;;20.04;31.50
30682;BME280;17439;48.092;11.842;2023-10-08T02:21:38;96089.72;;;20.03;31.46
30682;BME280;17439;48.092;11.842;2023-10-08T02:24:05;96092.91;;;20.05;31.75
30682;BME280;17439;48.092;11.842;2023-10-08T02:26:33;96092.63;;;19.94;30.97
30682;BME280;17439;48.092;11.842;2023-10-08T02:29:00;96084.94;;;20.00;31.03
30682;BME280;17439;48.092;11.842;2023-10-08T02:31:27;96081.03;;;20.01;30.99
30682;BME280;17439;48.092;11.842;2023-10-08T02:33:54;96076.31;;;20.02;30.78
30682;BME280;17439;48.092;11.842;2023-10-08T02:36:20;96077.09;;;20.02;30.56
30682;BME280;17439;48.092;11.842;2023-10-08T02:38:47;96074.00;;;20.04;30.81
30682;BME280;17439;48.092;11.842;2023-10-08T02:41:17;96076.31;;;20.02;29.70
30682;BME280;17439;48.092;11.842;2023-10-08T02:43:44;96067.00;;;20.06;30.70
30682;BME280;17439;48.092;11.842;2023-10-08T02:46:11;96066.63;;;20.08;30.85
30682;BME280;17439;48.092;11.842;2023-10-08T02:48:37;96068.50;;;20.04;30.28
30682;BME280;17439;48.092;11.842;2023-10-08T02:51:04;96070.09;;;20.05;30.48
30682;BME280;17439;48.092;11.842;2023-10-08T02:53:31;96070.09;;;20.05;30.28
30682;BME280;17439;48.092;11.842;2023-10-08T02:55:58;96078.72;;;20.03;30.29
30682;BME280;17439;48.092;11.842;2023-10-08T02:58:25;96071.25;;;20.04;30.06
30682;BME280;17439;48.092;11.842;2023-10-08T03:00:51;96060.66;;;20.06;30.26
30682;BME280;17439;48.092;11.842;2023-10-08T03:03:18;96062.28;;;20.07;30.23
30682;BME280;17439;48.092;11.842;2023-10-08T03:05:51;96051.97;;;20.04;29.72
30682;BME280;17439;48.092;11.842;2023-10-08T03:08:19;96054.81;;;20.07;30.18
30682;BME280;17439;48.092;11.842;2023-10-08T03:10:50;96053.59;;;20.05;29.82
30682;BME280;17439;48.092;11.842;2023-10-08T03:13:17;96052.34;;;20.02;30.14
30682;BME280;17439;48.092;11.842;2023-10-08T03:15:44;96054.38;;;20.05;30.47
30682;BME280;17439;48.092;11.842;2023-10-08T03:18:11;96053.50;;;20.01;30.29
30682;BME280;17439;48.092;11.842;2023-10-08T03:20:38;96051.91;;;20.00;30.28
30682;BME280;17439;48.092;11.842;2023-10-08T03:23:05;96051.47;;;19.98;30.20
30682;BME280;17439;48.092;11.842;2023-10-08T03:25:32;96053.06;;;19.99;30.33
30682;BME280;17439;48.092;11.842;2023-10-08T03:27:59;96053.41;;;19.98;30.28
30682;BME280;17439;48.092;11.842;2023-10-08T03:30:26;96053.06;;;19.99;30.42
30682;BME280;17439;48.092;11.842;2023-10-08T03:32:52;96052.69;;;20.01;30.41
30682;BME280;17439;48.092;11.842;2023-10-08T03:35:19;96057.78;;;19.99;30.68
30682;BME280;17439;48.092;11.842;2023-10-08T03:37:46;96055.03;;;19.99;30.88
30682;BME280;17439;48.092;11.842;2023-10-08T03:40:13;96049.09;;;19.97;30.64
30682;BME280;17439;48.092;11.842;2023-10-08T03:42:39;96055.81;;;19.99;31.07
30682;BME280;17439;48.092;11.842;2023-10-08T03:45:07;96051.91;;;20.00;30.81
30682;BME280;17439;48.092;11.842;2023-10-08T03:47:34;96051.47;;;19.98;31.23
30682;BME280;17439;48.092;11.842;2023-10-08T03:50:00;96054.22;;;19.98;30.93
30682;BME280;17439;48.092;11.842;2023-10-08T03:52:27;96049.88;;;19.97;31.07
30682;BME280;17439;48.092;11.842;2023-10-08T03:54:54;96054.22;;;19.98;31.35
30682;BME280;17439;48.092;11.842;2023-10-08T03:57:20;96054.94;;;19.95;31.25
30682;BME280;17439;48.092;11.842;2023-10-08T03:59:47;96052.97;;;19.96;31.64
30682;BME280;17439;48.092;11.842;2023-10-08T04:02:14;96054.94;;;19.95;31.35
30682;BME280;17439;48.092;11.842;2023-10-08T04:04:42;96043.13;;;19.94;31.37
30682;BME280;17439;48.092;11.842;2023-10-08T04:07:09;96044.28;;;19.93;31.28
30682;BME280;17439;48.092;11.842;2023-10-08T04:09:35;96045.88;;;19.94;31.64
30682;BME280;17439;48.092;11.842;2023-10-08T04:12:02;96045.88;;;19.94;31.46
30682;BME280;17439;48.092;11.842;2023-10-08T04:14:30;96044.72;;;19.96;31.76
30682;BME280;17439;48.092;11.842;2023-10-08T04:16:57;96049.44;;;19.95;31.53
30682;BME280;17439;48.092;11.842;2023-10-08T04:19:23;96045.88;;;19.94;31.69
30682;BME280;17439;48.092;11.842;2023-10-08T04:21:50;96051.00;;;19.96;32.03
30682;BME280;17439;48.092;11.842;2023-10-08T04:24:17;96049.44;;;19.95;31.86
30682;BME280;17439;48.092;11.842;2023-10-08T04:26:44;96048.63;;;19.94;31.74
30682;BME280;17439;48.092;11.842;2023-10-08T04:29:10;96044.72;;;19.96;32.02
30682;BME280;17439;48.092;11.842;2023-10-08T04:31:37;96055.72;;;19.96;31.94
30682;BME280;17439;48.092;11.842;2023-10-08T04:34:05;96052.53;;;19.93;31.94
30682;BME280;17439;48.092;11.842;2023-10-08T04:36:32;96047.84;;;19.94;32.08
30682;BME280;17439;48.092;11.842;2023-10-08T04:38:58;96043.13;;;19.94;32.17
30682;BME280;17439;48.092;11.842;2023-10-08T04:41:25;96042.75;;;19.96;32.25
30682;BME280;17439;48.092;11.842;2023-10-08T04:43:52;96042.75;;;19.96;32.40
30682;BME280;17439;48.092;11.842;2023-10-08T04:46:18;96041.63;;;19.97;32.27
30682;BME280;17439;48.092;11.842;2023-10-08T04:48:46;96041.19;;;19.95;32.36
30682;BME280;17439;48.092;11.842;2023-10-08T04:51:13;96049.88;;;19.97;32.30
30682;BME280;17439;48.092;11.842;2023-10-08T04:53:39;96043.22;;;19.98;32.31
30682;BME280;17439;48.092;11.842;2023-10-08T04:56:08;96046.75;;;19.99;32.76
30682;BME280;17439;48.092;11.842;2023-10-08T04:58:35;96046.41;;;20.00;32.80
30682;BME280;17439;48.092;11.842;2023-10-08T05:01:03;96053.88;;;20.00;32.69
30682;BME280;17439;48.092;11.842;2023-10-08T05:03:30;96058.19;;;20.01;32.98
30682;BME280;17439;48.092;11.842;2023-10-08T05:05:57;96063.69;;;20.01;32.78
30682;BME280;17439;48.092;11.842;2023-10-08T05:08:24;96061.78;;;20.01;32.53
30682;BME280;17439;48.092;11.842;2023-10-08T05:10:50;96062.56;;;20.02;32.61
30682;BME280;17439;48.092;11.842;2023-10-08T05:13:17;96056.63;;;20.00;32.71
30682;BME280;17439;48.092;11.842;2023-10-08T05:15:44;96067.63;;;20.00;32.55
30682;BME280;17439;48.092;11.842;2023-10-08T05:18:11;96076.66;;;20.00;32.79
30682;BME280;17439;48.092;11.842;2023-10-08T05:20:38;96068.78;;;19.99;32.68
30682;BME280;17439;48.092;11.842;2023-10-08T05:23:10;96090.00;;;19.98;33.09
30682;BME280;17439;48.092;11.842;2023-10-08T05:25:42;96092.41;;;20.00;32.86
30682;BME280;17439;48.092;11.842;2023-10-08T05:28:08;96100.66;;;20.00;33.21
30682;BME280;17439;48.092;11.842;2023-10-08T05:30:35;96098.25;;;19.98;33.65
30682;BME280;17439;48.092;11.842;2023-10-08T05:33:02;96106.03;;;19.96;34.27
30682;BME280;17439;48.092;11.842;2023-10-08T05:35:30;96116.19;;;19.92;34.50
30682;BME280;17439;48.092;11.842;2023-10-08T05:37:58;96114.94;;;19.89;34.70
30682;BME280;17439;48.092;11.842;2023-10-08T05:40:26;96126.63;;;19.86;35.37
30682;BME280;17439;48.092;11.842;2023-10-08T05:42:53;96136.53;;;19.75;35.64
30682;BME280;17439;48.092;11.842;2023-10-08T05:45:19;96137.47;;;19.79;36.10
30682;BME280;17439;48.092;11.842;2023-10-08T05:47:46;96144.13;;;19.78;36.26
30682;BME280;17439;48.092;11.842;2023-10-08T05:50:13;96148.00;;;19.77;36.81
30682;BME280;17439;48.092;11.842;2023-10-08T05:52:40;96145.16;;;19.73;36.96
30682;BME280;17439;48.092;11.842;2023-10-08T05:55:07;96154.09;;;19.70;37.09
30682;BME280;17439;48.092;11.842;2023-10-08T05:57:34;96168.22;;;19.69;37.23
30682;BME280;17439;48.092;11.842;2023-10-08T06:00:01;96178.78;;;19.67;37.46
30682;BME280;17439;48.092;11.842;2023-10-08T06:02:31;96174.75;;;19.64;37.79
30682;BME280;17439;48.092;11.842;2023-10-08T06:05:03;96186.47;;;19.61;38.34
30682;BME280;17439;48.092;11.842;2023-10-08T06:07:30;96187.63;;;19.60;38.07
30682;BME280;17439;48.092;11.842;2023-10-08T06:09:57;96194.63;;;19.57;38.13
30682;BME280;17439;48.092;11.842;2023-10-08T06:12:24;96198.50;;;19.56;37.57
30682;BME280;17439;48.092;11.842;2023-10-08T06:14:50;96196.13;;;19.55;37.87
30682;BME280;17439;48.092;11.842;2023-10-08T06:17:17;96206.31;;;19.54;37.56
30682;BME280;17439;48.092;11.842;2023-10-08T06:19:44;96198.44;;;19.53;38.03
30682;BME280;17439;48.092;11.842;2023-10-08T06:22:10;96204.28;;;19.51;37.37
30682;BME280;17439;48.092;11.842;2023-10-08T06:24:37;96203.94;;;19.53;37.43
30682;BME280;17439;48.092;11.842;2023-10-08T06:27:04;96198.44;;;19.53;37.51
30682;BME280;17439;48.092;11.842;2023-10-08T06:29:31;96204.84;;;19.57;37.12
30682;BME280;17439;48.092;11.842;2023-10-08T06:31:58;96196.59;;;19.57;37.49
30682;BME280;17439;48.092;11.842;2023-10-08T06:34:25;96199.78;;;19.59;36.90
30682;BME280;17439;48.092;11.842;2023-10-08T06:36:52;96190.81;;;19.62;37.51
30682;BME280;17439;48.092;11.842;2023-10-08T06:39:25;96185.75;;;19.64;37.45
30682;BME280;17439;48.092;11.842;2023-10-08T06:41:53;96177.16;;;19.66;37.25
30682;BME280;17439;48.092;11.842;2023-10-08T06:44:22;96173.63;;;19.65;36.84
30682;BME280;17439;48.092;11.842;2023-10-08T06:46:49;96170.88;;;19.65;36.67
30682;BME280;17439;48.092;11.842;2023-10-08T06:49:16;96167.41;;;19.68;36.34
30682;BME280;17439;48.092;11.842;2023-10-08T06:51:43;96168.22;;;19.69;35.65
30682;BME280;17439;48.092;11.842;2023-10-08T06:54:11;96173.72;;;19.69;35.91
30682;BME280;17439;48.092;11.842;2023-10-08T06:56:37;96184.00;;;19.72;35.31
30682;BME280;17439;48.092;11.842;2023-10-08T06:59:04;96186.84;;;19.75;35.36
30682;BME280;17439;48.092;11.842;2023-10-08T07:01:31;96188.13;;;19.78;35.26
30682;BME280;17439;48.092;11.842;2023-10-08T07:03:57;96189.41;;;19.81;34.91
30682;BME280;17439;48.092;11.842;2023-10-08T07:06:24;96193.50;;;19.87;34.66
30682;BME280;17439;48.092;11.842;2023-10-08T07:08:54;96188.41;;;19.89;34.49
30682;BME280;17439;48.092;11.842;2023-10-08T07:11:22;96190.13;;;19.93;34.85
30682;BME280;17439;48.092;11.842;2023-10-08T07:13:49;96187.25;;;19.90;35.09
30682;BME280;17439;48.092;11.842;2023-10-08T07:16:16;96191.09;;;20.01;34.94
30682;BME280;17439;48.092;11.842;2023-10-08T07:18:43;96197.56;;;20.09;34.71
30682;BME280;17439;48.092;11.842;2023-10-08T07:21:10;96194.94;;;20.13;34.56
30682;BME280;17439;48.092;11.842;2023-10-08T07:23:46;96185.25;;;20.19;34.78
30682;BME280;17439;48.092;11.842;2023-10-08T07:26:12;96177.94;;;20.26;34.87
30682;BME280;17439;48.092;11.842;2023-10-08T07:28:41;96188.34;;;20.33;34.67
30682;BME280;17439;48.092;11.842;2023-10-08T07:31:14;96179.47;;;20.40;34.24
30682;BME280;17439;48.092;11.842;2023-10-08T07:33:42;96180.31;;;20.44;34.32
30682;BME280;17439;48.092;11.842;2023-10-08T07:36:10;96184.41;;;20.50;34.15
30682;BME280;17439;48.092;11.842;2023-10-08T07:38:45;96179.44;;;20.56;34.21
30682;BME280;17439;48.092;11.842;2023-10-08T07:41:15;96164.25;;;20.62;34.20
30682;BME280;17439;48.092;11.842;2023-10-08T07:43:42;96171.88;;;20.69;34.26
30682;BME280;17439;48.092;11.842;2023-10-08T07:46:08;96176.41;;;20.77;33.91
30682;BME280;17439;48.092;11.842;2023-10-08T07:48:36;96184.84;;;20.84;34.01
30682;BME280;17439;48.092;11.842;2023-10-08T07:51:03;96183.38;;;20.90;33.78
30682;BME280;17439;48.092;11.842;2023-10-08T07:53:30;96175.28;;;20.97;33.71
30682;BME280;17439;48.092;11.842;2023-10-08T07:56:00;96182.53;;;21.06;33.91
30682;BME280;17439;48.092;11.842;2023-10-08T07:58:26;96181.03;;;21.08;33.78
30682;BME280;17439;48.092;11.842;2023-10-08T08:00:53;96179.56;;;21.14;34.02
30682;BME280;17439;48.092;11.842;2023-10-08T08:03:20;96180.88;;;21.20;33.85
30682;BME280;17439;48.092;11.842;2023-10-08T08:05:48;96192.41;;;21.26;33.76
30682;BME280;17439;48.092;11.842;2023-10-08T08:08:15;96189.34;;;21.31;33.96
30682;BME280;17439;48.092;11.842;2023-10-08T08:10:41;96176.88;;;21.37;33.80
30682;BME280;17439;48.092;11.842;2023-10-08T08:13:08;96180.94;;;21.44;33.90
30682;BME280;17439;48.092;11.842;2023-10-08T08:15:35;96181.81;;;21.48;34.14
30682;BME280;17439;48.092;11.842;2023-10-08T08:18:01;96193.00;;;21.55;33.77
30682;BME280;17439;48.092;11.842;2023-10-08T08:20:28;96180.09;;;21.59;33.77
30682;BME280;17439;48.092;11.842;2023-10-08T08:22:55;96173.50;;;21.64;33.72
30682;BME280;17439;48.092;11.842;2023-10-08T08:25:22;96171.66;;;21.71;33.70
30682;BME280;17439;48.092;11.842;2023-10-08T08:27:48;96182.41;;;21.77;33.56
30682;BME280;17439;48.092;11.842;2023-10-08T08:30:15;96187.25;;;21.83;33.70
30682;BME280;17439;48.092;11.842;2023-10-08T08:32:44;96186.94;;;21.88;32.96
30682;BME280;17439;48.092;11.842;2023-10-08T08:35:12;96190.56;;;21.92;33.09
30682;BME280;17439;48.092;11.842;2023-10-08T08:37:38;96196.94;;;21.97;33.27
30682;BME280;17439;48.092;11.842;2023-10-08T08:40:05;96198.19;;;21.99;32.86
30682;BME280;17439;48.092;11.842;2023-10-08T08:42:33;96206.50;;;22.03;32.84
30682;BME280;17439;48.092;11.842;2023-10-08T08:45:00;96206.16;;;22.04;32.95
30682;BME280;17439;48.092;11.842;2023-10-08T08:47:28;96206.16;;;22.04;32.46
30682;BME280;17439;48.092;11.842;2023-10-08T08:49:56;96208.91;;;22.04;32.63
30682;BME280;17439;48.092;11.842;2023-10-08T08:52:25;96202.59;;;22.04;32.71
30682;BME280;17439;48.092;11.842;2023-10-08T08:54:52;96209.72;;;22.05;32.57
30682;BME280;17439;48.092;11.842;2023-10-08T08:57:19;96206.59;;;22.06;32.96
30682;BME280;17439;48.092;11.842;2023-10-08T08:59:53;96193.53;;;22.03;32.71
30682;BME280;17439;48.092;11.842;2023-10-08T09:02:20;96181.31;;;22.04;32.70
30682;BME280;17439;48.092;11.842;2023-10-08T09:04:50;96180.94;;;22.06;32.84
30682;BME280;17439;48.092;11.842;2023-10-08T09:07:20;96176.66;;;22.08;32.61
30682;BME280;17439;48.092;11.842;2023-10-08T09:09:47;96168.38;;;22.08;32.99
30682;BME280;17439;48.092;11.842;2023-10-08T09:12:17;96182.50;;;22.03;32.70
30682;BME280;17439;48.092;11.842;2023-10-08T09:14:46;96179.84;;;22.10;33.32
30682;BME280;17439;48.092;11.842;2023-10-08T09:17:12;96185.88;;;22.16;33.43
30682;BME280;17439;48.092;11.842;2023-10-08T09:19:39;96196.16;;;22.19;33.10
30682;BME280;17439;48.092;11.842;2023-10-08T09:22:08;96199.78;;;22.23;33.10
30682;BME280;17439;48.092;11.842;2023-10-08T09:24:37;96198.25;;;22.26;33.28
30682;BME280;17439;48.092;11.842;2023-10-08T09:27:08;96209.72;;;22.28;33.50
30682;BME280;17439;48.092;11.842;2023-10-08T09:29:35;96198.34;;;22.30;33.72
30682;BME280;17439;48.092;11.842;2023-10-08T09:32:04;96210.63;;;22.32;33.38
30682;BME280;17439;48.092;11.842;2023-10-08T09:34:31;96207.84;;;22.32;33.81
30682;BME280;17439;48.092;11.842;2023-10-08T09:36:59;96211.03;;;22.34;33.64
30682;BME280;17439;48.092;11.842;2023-10-08T09:39:30;96210.66;;;22.36;33.72
30682;BME280;17439;48.092;11.842;2023-10-08T09:41:57;96214.31;;;22.40;33.51
30682;BME280;17439;48.092;11.842;2023-10-08T09:44:25;96224.59;;;22.43;33.80
30682;BME280;17439;48.092;11.842;2023-10-08T09:46:53;96225.88;;;22.49;33.70
30682;BME280;17439;48.092;11.842;2023-10-08T09:49:26;96223.59;;;22.55;33.29
30682;BME280;17439;48.092;11.842;2023-10-08T09:51:56;96220.94;;;22.62;33.46
30682;BME280;17439;48.092;11.842;2023-10-08T09:54:28;96223.78;;;22.66;33.91
30682;BME280;17439;48.092;11.842;2023-10-08T09:56:59;96233.81;;;22.77;33.49
30682;BME280;17439;48.092;11.842;2023-10-08T09:59:28;96237.09;;;22.83;33.37
30682;BME280;17439;48.092;11.842;2023-10-08T10:01:56;96235.97;;;22.88;33.78
30682;BME280;17439;48.092;11.842;2023-10-08T10:04:23;96236.44;;;22.93;33.64
30682;BME280;17439;48.092;11.842;2023-10-08T10:06:51;96239.25;;;22.97;33.79
30682;BME280;17439;48.092;11.842;2023-10-08T10:09:20;96248.03;;;23.03;33.77
30682;BME280;17439;48.092;11.842;2023-10-08T10:11:49;96235.06;;;23.07;33.58
30682;BME280;17439;48.092;11.842;2023-10-08T10:14:16;96239.88;;;23.10;33.52
30682;BME280;17439;48.092;11.842;2023-10-08T10:16:43;96235.97;;;23.14;33.26
30682;BME280;17439;48.092;11.842;2023-10-08T10:19:16;96240.75;;;23.17;33.25
30682;BME280;17439;48.092;11.842;2023-10-08T10:21:45;96244.38;;;23.22;33.22
30682;BME280;17439;48.092;11.842;2023-10-08T10:24:35;96251.94;;;23.25;33.25
30682;BME280;17439;48.092;11.842;2023-10-08T10:27:13;96246.81;;;23.27;33.04
30682;BME280;17439;48.092;11.842;2023-10-08T10:29:43;96255.09;;;23.27;33.52
30682;BME280;17439;48.092;11.842;2023-10-08T10:32:11;96258.28;;;23.29;33.47
30682;BME280;17439;48.092;11.842;2023-10-08T10:34:39;96257.13;;;23.30;33.22
30682;BME280;17439;48.092;11.842;2023-10-08T10:37:06;96265.00;;;23.28;33.51
30682;BME280;17439;48.092;11.842;2023-10-08T10:39:33;96268.56;;;23.28;33.38
30682;BME280;17439;48.092;11.842;2023-10-08T10:42:01;96262.28;;;23.31;33.90
30682;BME280;17439;48.092;11.842;2023-10-08T10:44:30;96249.56;;;23.27;33.86
30682;BME280;17439;48.092;11.842;2023-10-08T10:46:58;96252.28;;;23.23;34.09
30682;BME280;17439;48.092;11.842;2023-10-08T10:49:25;96248.31;;;23.21;33.87
30682;BME280;17439;48.092;11.842;2023-10-08T10:51:52;96251.44;;;23.19;34.33
30682;BME280;17439;48.092;11.842;2023-10-08T10:54:21;96257.78;;;23.20;34.00
30682;BME280;17439;48.092;11.842;2023-10-08T10:56:47;96252.63;;;23.18;34.05
30682;BME280;17439;48.092;11.842;2023-10-08T10:59:14;96247.84;;;23.15;34.00
30682;BME280;17439;48.092;11.842;2023-10-08T11:01:48;96242.69;;;23.13;34.12
30682;BME280;17439;48.092;11.842;2023-10-08T11:04:15;96246.66;;;23.16;34.54
30682;BME280;17439;48.092;11.842;2023-10-08T11:06:43;96235.19;;;23.14;34.02
30682;BME280;17439;48.092;11.842;2023-10-08T11:09:10;96241.34;;;23.04;34.58
30682;BME280;17439;48.092;11.842;2023-10-08T11:11:37;96234.34;;;23.10;34.21
30682;BME280;17439;48.092;11.842;2023-10-08T11:14:05;96227.63;;;23.11;34.54
30682;BME280;17439;48.092;11.842;2023-10-08T11:16:31;96225.66;;;23.11;34.41
30682;BME280;17439;48.092;11.842;2023-10-08T11:18:58;96222.88;;;23.11;34.46
30682;BME280;17439;48.092;11.842;2023-10-08T11:21:25;96209.88;;;23.12;34.05
30682;BME280;17439;48.092;11.842;2023-10-08T11:23:52;96211.06;;;23.14;33.88
30682;BME280;17439;48.092;11.842;2023-10-08T11:26:23;96204.34;;;23.12;34.19
30682;BME280;17439;48.092;11.842;2023-10-08T11:28:50;96203.13;;;23.09;34.57
30682;BME280;17439;48.092;11.842;2023-10-08T11:31:17;96198.00;;;23.11;34.17
30682;BME280;17439;48.092;11.842;2023-10-08T11:33:44;96207.53;;;23.14;34.26
30682;BME280;17439;48.092;11.842;2023-10-08T11:36:17;96227.66;;;23.14;34.58
30682;BME280;17439;48.092;11.842;2023-10-08T11:38:47;96226.88;;;23.14;34.24
30682;BME280;17439;48.092;11.842;2023-10-08T11:41:15;96227.25;;;23.12;34.32
30682;BME280;17439;48.092;11.842;2023-10-08T11:43:42;96219.38;;;23.14;34.38
30682;BME280;17439;48.092;11.842;2023-10-08T11:46:09;96206.72;;;23.13;34.50
30682;BME280;17439;48.092;11.842;2023-10-08T11:48:36;96212.25;;;23.13;34.31
30682;BME280;17439;48.092;11.842;2023-10-08T11:51:03;96207.16;;;23.15;34.73
30682;BME280;17439;48.092;11.842;2023-10-08T11:53:29;96212.69;;;23.15;34.74
30682;BME280;17439;48.092;11.842;2023-10-08T11:55:57;96207.53;;;23.14;34.85
30682;BME280;17439;48.092;11.842;2023-10-08T11:58:24;96208.75;;;23.16;34.78
30682;BME280;17439;48.092;11.842;2023-10-08T12:00:51;96208.38;;;23.18;35.08
30682;BME280;17439;48.092;11.842;2023-10-08T12:03:18;96207.63;;;23.21;35.00
30682;BME280;17439;48.092;11.842;2023-10-08T12:05:48;96212.78;;;23.23;35.02
30682;BME280;17439;48.092;11.842;2023-10-08T12:08:18;96217.94;;;23.24;34.97
30682;BME280;17439;48.092;11.842;2023-10-08T12:10:45;96203.75;;;23.26;35.14
30682;BME280;17439;48.092;11.842;2023-10-08T12:13:12;96214.41;;;23.27;35.18
30682;BME280;17439;48.092;11.842;2023-10-08T12:15:39;96206.06;;;23.24;35.19
30682;BME280;17439;48.092;11.842;2023-10-08T12:18:08;96204.53;;;23.26;35.17
30682;BME280;17439;48.092;11.842;2023-10-08T12:20:36;96223.53;;;23.28;35.37
30682;BME280;17439;48.092;11.842;2023-10-08T12:23:05;96215.22;;;23.28;34.98
30682;BME280;17439;48.092;11.842;2023-10-08T12:25:32;96225.88;;;23.26;34.94
30682;BME280;17439;48.092;11.842;2023-10-08T12:28:00;96219.16;;;23.27;34.90
30682;BME280;17439;48.092;11.842;2023-10-08T12:30:28;96217.16;;;23.27;34.93
30682;BME280;17439;48.092;11.842;2023-10-08T12:32:58;96214.00;;;23.25;35.47
30682;BME280;17439;48.092;11.842;2023-10-08T12:35:26;96217.13;;;23.24;35.55
30682;BME280;17439;48.092;11.842;2023-10-08T12:37:53;96218.31;;;23.23;35.16
30682;BME280;17439;48.092;11.842;2023-10-08T12:40:20;96208.41;;;23.22;35.07
30682;BME280;17439;48.092;11.842;2023-10-08T12:42:46;96215.50;;;23.19;35.45
30682;BME280;17439;48.092;11.842;2023-10-08T12:45:13;96219.38;;;23.14;35.38
30682;BME280;17439;48.092;11.842;2023-10-08T12:47:40;96218.59;;;23.14;35.18
30682;BME280;17439;48.092;11.842;2023-10-08T12:50:07;96209.06;;;23.11;35.49
30682;BME280;17439;48.092;11.842;2023-10-08T12:52:34;96210.63;;;23.09;35.05